createdAt,value
2022-11-27T00:01:00.042Z,19.00
2022-11-27T00:02:01.633Z,20.13
2022-11-27T00:03:03.454Z,19.65
2022-11-27T00:04:09.276Z,19.55
2022-11-27T00:05:10.903Z,18.33
2022-11-27T00:06:15.790Z,19.77
2022-11-27T00:07:17.462Z,22.77
2022-11-27T00:08:19.080Z,26.92
2022-11-27T00:09:20.864Z,25.80
2022-11-27T00:10:22.809Z,26.17
2022-11-27T00:11:26.132Z,26.25
2022-11-27T00:12:27.784Z,27.15
2022-11-27T00:13:29.677Z,25.98
2022-11-27T00:14:31.366Z,26.50
2022-11-27T00:15:33.017Z,30.75
2022-11-27T00:16:34.636Z,27.52
2022-11-27T00:17:36.162Z,24.98
2022-11-27T00:18:38.715Z,26.52
2022-11-27T00:19:40.722Z,27.77
2022-11-27T00:20:42.568Z,24.35
2022-11-27T00:21:44.323Z,31.02
2022-11-27T00:22:45.960Z,37.17
2022-11-27T00:23:47.607Z,26.35
2022-11-27T00:24:49.177Z,27.75
2022-11-27T00:25:53.736Z,27.20
2022-11-27T00:26:56.031Z,28.27
2022-11-27T00:27:57.652Z,24.17
2022-11-27T00:28:59.273Z,23.88
2022-11-27T00:30:00.840Z,20.58
2022-11-27T00:31:08.869Z,26.02
2022-11-27T00:32:10.461Z,23.85
2022-11-27T00:33:12.552Z,23.48
2022-11-27T00:34:14.398Z,29.65
2022-11-27T00:35:16.237Z,26.88
2022-11-27T00:36:17.947Z,26.25
2022-11-27T00:37:19.746Z,28.17
2022-11-27T00:38:21.955Z,26.65
2022-11-27T00:39:23.567Z,27.70
2022-11-27T00:40:25.190Z,26.67
2022-11-27T00:41:29.472Z,24.13
2022-11-27T00:42:31.039Z,26.67
2022-11-27T00:43:43.201Z,25.17
2022-11-27T00:44:45.955Z,25.73
2022-11-27T00:45:50.419Z,30.30
2022-11-27T00:46:52.095Z,25.38
2022-11-27T00:47:53.886Z,25.88
2022-11-27T00:48:56.975Z,26.23
2022-11-27T00:49:58.816Z,27.00
2022-11-27T00:51:05.881Z,29.65
2022-11-27T00:52:07.859Z,31.33
2022-11-27T00:53:09.568Z,27.80
2022-11-27T00:54:11.201Z,29.52
2022-11-27T00:55:12.871Z,26.42
2022-11-27T00:56:20.291Z,28.33
2022-11-27T00:57:21.855Z,28.25
2022-11-27T00:58:24.259Z,25.05
2022-11-27T00:59:25.951Z,24.42
2022-11-27T01:00:27.574Z,26.92
2022-11-27T01:01:32.277Z,26.85
2022-11-27T01:02:34.124Z,27.73
2022-11-27T01:03:35.937Z,26.55
2022-11-27T01:04:37.809Z,20.40
2022-11-27T01:05:39.659Z,24.00
2022-11-27T01:06:41.974Z,23.10
2022-11-27T01:07:43.594Z,24.90
2022-11-27T01:08:45.618Z,23.92
2022-11-27T01:09:47.201Z,25.40
2022-11-27T01:10:55.077Z,27.52
2022-11-27T01:11:57.160Z,27.75
2022-11-27T01:12:59.016Z,26.35
2022-11-27T01:14:04.033Z,26.67
2022-11-27T01:15:06.037Z,25.85
2022-11-27T01:16:13.418Z,25.08
2022-11-27T01:17:15.062Z,40.25
2022-11-27T01:18:16.714Z,44.65
2022-11-27T01:19:19.183Z,41.08
2022-11-27T01:20:20.728Z,32.03
2022-11-27T01:21:22.674Z,36.35
2022-11-27T01:22:24.271Z,36.55
2022-11-27T01:23:26.469Z,34.22
2022-11-27T01:24:28.056Z,24.08
2022-11-27T01:25:29.592Z,28.00
2022-11-27T01:26:31.807Z,28.20
2022-11-27T01:27:33.361Z,23.60
2022-11-27T01:28:36.315Z,24.67
2022-11-27T01:29:37.888Z,20.67
2022-11-27T01:30:39.803Z,34.55
2022-11-27T01:31:41.697Z,27.75
2022-11-27T01:32:43.371Z,23.15
2022-11-27T01:33:46.332Z,22.30
2022-11-27T01:34:47.870Z,18.70
2022-11-27T01:35:57.637Z,24.17
2022-11-27T01:36:59.268Z,22.90
2022-11-27T01:38:00.946Z,21.38
2022-11-27T01:39:03.470Z,21.45
2022-11-27T01:40:05.864Z,25.58
2022-11-27T01:41:15.018Z,24.83
2022-11-27T01:42:16.754Z,23.85
2022-11-27T01:43:18.464Z,20.27
2022-11-27T01:44:25.876Z,19.58
2022-11-27T01:45:27.506Z,22.77
2022-11-27T01:46:39.323Z,17.05
2022-11-27T01:47:52.467Z,25.25
2022-11-27T01:48:59.614Z,20.00
2022-11-27T01:50:09.614Z,20.58
2022-11-27T01:51:11.612Z,27.00
2022-11-27T01:52:19.801Z,24.73
2022-11-27T01:53:21.467Z,24.67
2022-11-27T01:54:29.377Z,26.65
2022-11-27T01:55:36.112Z,20.63
2022-11-27T01:56:39.990Z,23.17
2022-11-27T01:57:45.699Z,30.20
2022-11-27T01:58:47.781Z,25.98
2022-11-27T01:59:52.338Z,24.25
2022-11-27T02:00:54.412Z,23.83
2022-11-27T02:01:56.296Z,22.92
2022-11-27T02:02:58.334Z,25.40
2022-11-27T02:04:01.795Z,23.88
2022-11-27T02:05:03.635Z,21.48
2022-11-27T02:06:05.490Z,22.40
2022-11-27T02:07:07.175Z,19.17
2022-11-27T02:08:12.835Z,23.48
2022-11-27T02:09:14.561Z,25.95
2022-11-27T02:10:17.157Z,21.23
2022-11-27T02:11:33.628Z,22.25
2022-11-27T02:12:50.891Z,20.35
2022-11-27T02:14:08.771Z,26.60
2022-11-27T02:15:25.456Z,21.73
2022-11-27T02:16:45.784Z,19.83
2022-11-27T02:18:01.502Z,21.00
2022-11-27T02:19:40.601Z,20.98
2022-11-27T02:21:04.985Z,22.48
2022-11-27T02:22:29.057Z,19.08
2022-11-27T02:23:55.011Z,20.38
2022-11-27T02:25:03.100Z,18.38
2022-11-27T02:26:50.391Z,23.23
2022-11-27T02:28:00.954Z,23.00
2022-11-27T02:29:08.614Z,17.23
2022-11-27T02:30:10.932Z,17.77
2022-11-27T02:31:22.361Z,16.40
2022-11-27T02:32:31.220Z,19.25
2022-11-27T02:33:34.852Z,18.63
2022-11-27T02:34:45.591Z,18.05
2022-11-27T02:35:56.658Z,21.90
2022-11-27T02:37:13.533Z,19.45
2022-11-27T02:38:28.692Z,24.27
2022-11-27T02:39:41.143Z,25.52
2022-11-27T02:40:56.257Z,23.15
2022-11-27T02:42:06.137Z,21.58
2022-11-27T02:43:19.249Z,19.98
2022-11-27T02:44:22.853Z,17.20
2022-11-27T02:45:31.802Z,19.55
2022-11-27T02:46:34.582Z,18.38
2022-11-27T02:47:39.976Z,25.20
2022-11-27T02:48:50.555Z,22.45
2022-11-27T02:49:57.024Z,24.30
2022-11-27T02:50:59.025Z,26.27
2022-11-27T02:52:02.515Z,27.60
2022-11-27T02:53:11.023Z,20.23
2022-11-27T02:54:19.470Z,24.38
2022-11-27T02:55:25.733Z,23.70
2022-11-27T02:56:29.791Z,24.10
2022-11-27T02:57:33.435Z,22.63
2022-11-27T02:58:37.344Z,25.00
2022-11-27T02:59:41.064Z,19.63
2022-11-27T03:00:44.886Z,23.27
2022-11-27T03:01:53.428Z,26.65
2022-11-27T03:03:00.400Z,21.25
2022-11-27T03:04:07.514Z,24.77
2022-11-27T03:05:15.345Z,23.27
2022-11-27T03:06:31.363Z,26.33
2022-11-27T03:08:01.460Z,20.10
2022-11-27T03:09:06.810Z,27.80
2022-11-27T03:10:20.626Z,28.10
2022-11-27T03:11:23.076Z,21.80
2022-11-27T03:12:24.786Z,19.63
2022-11-27T03:13:27.739Z,25.75
2022-11-27T03:14:29.539Z,26.67
2022-11-27T03:16:05.648Z,29.08
2022-11-27T03:17:25.801Z,24.63
2022-11-27T03:18:39.515Z,23.55
2022-11-27T03:20:03.433Z,27.10
2022-11-27T03:21:29.873Z,26.48
2022-11-27T03:22:31.857Z,25.00
2022-11-27T03:23:33.385Z,20.80
2022-11-27T03:24:36.020Z,18.08
2022-11-27T03:25:37.611Z,18.45
2022-11-27T03:26:40.811Z,18.48
2022-11-27T03:28:10.512Z,21.88
2022-11-27T03:29:21.683Z,21.60
2022-11-27T03:30:23.471Z,23.95
2022-11-27T03:31:26.354Z,21.45
2022-11-27T03:32:30.210Z,20.10
2022-11-27T03:33:31.947Z,21.20
2022-11-27T03:34:34.104Z,23.25
2022-11-27T03:35:35.789Z,21.42
2022-11-27T03:36:37.475Z,23.35
2022-11-27T03:37:39.346Z,22.45
2022-11-27T03:38:42.195Z,21.17
2022-11-27T03:39:44.270Z,20.50
2022-11-27T03:41:01.752Z,20.30
2022-11-27T03:42:11.530Z,18.60
2022-11-27T03:43:24.094Z,18.30
2022-11-27T03:44:43.930Z,19.38
2022-11-27T03:46:05.590Z,20.50
2022-11-27T03:47:19.502Z,21.00
2022-11-27T03:48:30.348Z,22.23
2022-11-27T03:49:47.286Z,20.60
2022-11-27T03:51:04.071Z,22.40
2022-11-27T03:52:44.508Z,22.42
2022-11-27T03:54:02.081Z,19.90
2022-11-27T03:55:17.240Z,20.73
2022-11-27T03:56:27.101Z,17.23
2022-11-27T03:57:33.782Z,18.67
2022-11-27T03:58:44.859Z,18.40
2022-11-27T03:59:50.418Z,20.10
2022-11-27T04:00:53.139Z,21.55
2022-11-27T04:01:54.807Z,22.60
2022-11-27T04:02:56.383Z,19.88
2022-11-27T04:03:58.002Z,21.13
2022-11-27T04:04:59.626Z,27.70
2022-11-27T04:06:01.233Z,25.33
2022-11-27T04:07:02.875Z,22.77
2022-11-27T04:08:04.926Z,26.25
2022-11-27T04:09:06.997Z,23.77
2022-11-27T04:10:09.873Z,27.42
2022-11-27T04:11:11.424Z,22.33
2022-11-27T04:12:12.998Z,25.90
2022-11-27T04:13:15.490Z,24.33
2022-11-27T04:14:17.062Z,21.77
2022-11-27T04:15:18.907Z,21.50
2022-11-27T04:16:20.978Z,19.77
2022-11-27T04:17:22.786Z,19.27
2022-11-27T04:18:24.426Z,20.42
2022-11-27T04:19:26.033Z,19.90
2022-11-27T04:20:29.110Z,17.20
2022-11-27T04:21:30.731Z,20.85
2022-11-27T04:22:32.789Z,21.10
2022-11-27T04:23:34.478Z,19.23
2022-11-27T04:24:36.154Z,18.35
2022-11-27T04:25:37.711Z,21.48
2022-11-27T04:26:39.364Z,20.95
2022-11-27T04:27:41.058Z,20.33
2022-11-27T04:28:42.694Z,18.55
2022-11-27T04:29:44.251Z,17.52
2022-11-27T04:30:50.407Z,19.35
2022-11-27T04:31:51.990Z,17.48
2022-11-27T04:32:53.665Z,16.83
2022-11-27T04:33:55.301Z,18.77
2022-11-27T04:34:56.891Z,16.60
2022-11-27T04:35:58.487Z,17.33
2022-11-27T04:37:00.082Z,21.02
2022-11-27T04:38:01.809Z,19.65
2022-11-27T04:39:03.573Z,20.50
2022-11-27T04:40:06.087Z,19.60
2022-11-27T04:41:07.857Z,20.38
2022-11-27T04:42:09.549Z,18.33
2022-11-27T04:43:11.275Z,21.02
2022-11-27T04:44:13.408Z,19.80
2022-11-27T04:45:14.981Z,18.92
2022-11-27T04:46:16.560Z,18.42
2022-11-27T04:47:18.248Z,20.25
2022-11-27T04:48:19.942Z,21.05
2022-11-27T04:49:21.465Z,18.70
2022-11-27T04:50:23.046Z,22.20
2022-11-27T04:51:24.602Z,21.00
2022-11-27T04:52:26.223Z,19.67
2022-11-27T04:53:27.950Z,20.10
2022-11-27T04:54:29.544Z,16.60
2022-11-27T04:55:31.150Z,19.05
2022-11-27T04:56:32.715Z,21.05
2022-11-27T04:57:34.259Z,16.60
2022-11-27T04:58:35.888Z,22.70
2022-11-27T04:59:38.216Z,22.55
2022-11-27T05:00:39.819Z,21.42
2022-11-27T05:01:41.491Z,23.55
2022-11-27T05:02:43.200Z,23.30
2022-11-27T05:03:47.339Z,23.55
2022-11-27T05:04:49.129Z,21.73
2022-11-27T05:05:57.575Z,23.90
2022-11-27T05:06:59.159Z,24.13
2022-11-27T05:08:00.732Z,22.77
2022-11-27T05:09:02.479Z,24.02
2022-11-27T05:10:05.483Z,25.23
2022-11-27T05:11:11.518Z,26.92
2022-11-27T05:12:13.354Z,25.60
2022-11-27T05:13:14.988Z,24.98
2022-11-27T05:14:20.786Z,23.15
2022-11-27T05:15:22.400Z,27.92
2022-11-27T05:16:24.150Z,29.90
2022-11-27T05:17:25.839Z,24.38
2022-11-27T05:18:27.631Z,30.75
2022-11-27T05:19:30.982Z,26.50
2022-11-27T05:20:32.628Z,29.25
2022-11-27T05:21:34.432Z,26.98
2022-11-27T05:22:36.134Z,28.55
2022-11-27T05:23:38.043Z,22.50
2022-11-27T05:24:39.956Z,22.88
2022-11-27T05:25:41.897Z,27.10
2022-11-27T05:26:44.018Z,23.80
2022-11-27T05:27:45.702Z,23.60
2022-11-27T05:28:47.515Z,22.83
2022-11-27T05:29:49.151Z,19.38
2022-11-27T05:30:51.273Z,21.73
2022-11-27T05:31:53.608Z,20.70
2022-11-27T05:32:55.376Z,20.50
2022-11-27T05:33:57.379Z,19.75
2022-11-27T05:34:58.891Z,16.73
2022-11-27T05:36:00.430Z,18.20
2022-11-27T05:37:02.019Z,15.27
2022-11-27T05:38:03.690Z,18.75
2022-11-27T05:39:06.977Z,19.40
2022-11-27T05:40:09.029Z,20.98
2022-11-27T05:41:10.735Z,21.85
2022-11-27T05:42:12.388Z,20.77
2022-11-27T05:43:14.107Z,18.40
2022-11-27T05:44:16.016Z,16.95
2022-11-27T05:45:17.709Z,18.20
2022-11-27T05:46:21.532Z,13.57
2022-11-27T05:47:23.470Z,18.25
2022-11-27T05:48:25.032Z,18.25
2022-11-27T05:49:26.797Z,17.90
2022-11-27T05:50:28.523Z,16.40
2022-11-27T05:51:30.165Z,19.45
2022-11-27T05:52:31.929Z,18.30
2022-11-27T05:53:34.260Z,17.67
2022-11-27T05:54:35.904Z,17.13
2022-11-27T05:55:37.543Z,17.55
2022-11-27T05:56:39.238Z,16.20
2022-11-27T05:57:41.029Z,17.60
2022-11-27T05:58:44.643Z,18.65
2022-11-27T05:59:46.318Z,18.35
2022-11-27T06:00:47.929Z,18.05
2022-11-27T06:01:49.721Z,17.95
2022-11-27T06:02:51.640Z,17.90
2022-11-27T06:03:53.456Z,16.60
2022-11-27T06:04:55.148Z,16.80
2022-11-27T06:05:57.290Z,17.08
2022-11-27T06:06:59.043Z,19.92
2022-11-27T06:08:00.813Z,21.88
2022-11-27T06:09:04.037Z,20.75
2022-11-27T06:10:07.992Z,19.20
2022-11-27T06:11:13.605Z,19.35
2022-11-27T06:12:15.431Z,19.50
2022-11-27T06:13:17.181Z,20.05
2022-11-27T06:14:18.827Z,18.80
2022-11-27T06:15:20.460Z,17.90
2022-11-27T06:16:24.260Z,18.35
2022-11-27T06:17:26.148Z,19.20
2022-11-27T06:18:27.958Z,17.77
2022-11-27T06:19:30.368Z,19.58
2022-11-27T06:20:32.197Z,19.95
2022-11-27T06:21:33.944Z,20.98
2022-11-27T06:22:35.571Z,18.75
2022-11-27T06:23:37.936Z,18.60
2022-11-27T06:24:39.831Z,20.88
2022-11-27T06:25:41.656Z,20.52
2022-11-27T06:26:43.326Z,23.30
2022-11-27T06:27:44.980Z,22.30
2022-11-27T06:28:47.536Z,22.30
2022-11-27T06:29:49.083Z,21.38
2022-11-27T06:30:51.004Z,20.80
2022-11-27T06:31:52.821Z,21.85
2022-11-27T06:32:54.443Z,21.20
2022-11-27T06:33:57.219Z,22.85
2022-11-27T06:34:59.152Z,23.20
2022-11-27T06:36:01.307Z,22.98
2022-11-27T06:37:02.950Z,19.80
2022-11-27T06:38:04.822Z,21.02
2022-11-27T06:39:08.155Z,22.80
2022-11-27T06:40:10.245Z,26.58
2022-11-27T06:41:15.061Z,22.20
2022-11-27T06:42:16.960Z,28.73
2022-11-27T06:43:18.664Z,20.80
2022-11-27T06:44:20.784Z,19.60
2022-11-27T06:45:22.520Z,20.85
2022-11-27T06:46:24.613Z,20.35
2022-11-27T06:47:26.213Z,22.00
2022-11-27T06:48:28.138Z,19.50
2022-11-27T06:49:30.054Z,17.02
2022-11-27T06:50:31.793Z,17.00
2022-11-27T06:51:33.415Z,16.90
2022-11-27T06:52:40.121Z,22.83
2022-11-27T06:53:43.499Z,16.55
2022-11-27T06:54:45.192Z,21.35
2022-11-27T06:55:46.813Z,18.40
2022-11-27T06:56:50.489Z,18.35
2022-11-27T06:57:52.096Z,18.75
2022-11-27T06:58:55.707Z,16.83
2022-11-27T06:59:57.241Z,16.98
2022-11-27T07:01:00.567Z,16.20
2022-11-27T07:02:02.235Z,16.20
2022-11-27T07:03:03.883Z,14.35
2022-11-27T07:04:05.566Z,16.95
2022-11-27T07:05:07.587Z,15.43
2022-11-27T07:06:11.914Z,16.83
2022-11-27T07:07:13.560Z,16.80
2022-11-27T07:08:15.254Z,18.77
2022-11-27T07:09:16.747Z,18.23
2022-11-27T07:10:18.340Z,16.45
2022-11-27T07:11:22.516Z,17.55
2022-11-27T07:12:24.163Z,16.35
2022-11-27T07:13:25.836Z,16.77
2022-11-27T07:14:27.413Z,17.27
2022-11-27T07:15:29.270Z,19.17
2022-11-27T07:16:34.259Z,18.65
2022-11-27T07:17:35.852Z,19.75
2022-11-27T07:18:43.005Z,20.88
2022-11-27T07:19:44.669Z,17.67
2022-11-27T07:20:56.618Z,19.00
2022-11-27T07:21:58.419Z,24.60
2022-11-27T07:23:00.122Z,20.73
2022-11-27T07:24:01.761Z,19.33
2022-11-27T07:25:03.708Z,22.38
2022-11-27T07:26:13.893Z,23.02
2022-11-27T07:27:15.472Z,23.25
2022-11-27T07:28:19.047Z,27.13
2022-11-27T07:29:20.894Z,24.70
2022-11-27T07:30:22.628Z,20.90
2022-11-27T07:31:29.335Z,22.65
2022-11-27T07:32:31.758Z,21.58
2022-11-27T07:33:33.483Z,26.02
2022-11-27T07:34:35.034Z,22.40
2022-11-27T07:35:36.665Z,22.15
2022-11-27T07:36:38.354Z,25.77
2022-11-27T07:37:39.925Z,24.10
2022-11-27T07:38:41.977Z,26.35
2022-11-27T07:40:01.367Z,41.55
2022-11-27T07:41:05.492Z,24.17
2022-11-27T07:42:36.374Z,23.60
2022-11-27T07:43:29.570Z,22.88
2022-11-27T07:44:31.275Z,27.38
2022-11-27T07:45:33.245Z,22.63
2022-11-27T07:46:35.022Z,22.08
2022-11-27T07:47:37.434Z,20.58
2022-11-27T07:48:39.255Z,20.38
2022-11-27T07:49:40.994Z,21.58
2022-11-27T07:50:42.737Z,19.13
2022-11-27T07:51:44.443Z,20.13
2022-11-27T07:52:46.179Z,19.73
2022-11-27T07:53:48.810Z,20.08
2022-11-27T07:54:50.398Z,21.75
2022-11-27T07:55:52.106Z,20.63
2022-11-27T07:56:53.681Z,19.60
2022-11-27T07:57:55.218Z,22.52
2022-11-27T07:58:58.154Z,22.15
2022-11-27T07:59:59.714Z,22.52
2022-11-27T08:01:01.480Z,20.33
2022-11-27T08:02:03.450Z,19.83
2022-11-27T08:03:05.049Z,20.50
2022-11-27T08:04:06.681Z,21.90
2022-11-27T08:05:12.709Z,22.48
2022-11-27T08:06:21.489Z,23.67
2022-11-27T08:07:30.081Z,23.52
2022-11-27T08:08:33.048Z,22.15
2022-11-27T08:09:34.721Z,22.17
2022-11-27T08:10:37.353Z,20.40
2022-11-27T08:11:39.572Z,22.08
2022-11-27T08:12:41.132Z,21.58
2022-11-27T08:13:42.792Z,20.13
2022-11-27T08:14:44.508Z,23.38
2022-11-27T08:15:46.279Z,21.60
2022-11-27T08:16:47.852Z,22.88
2022-11-27T08:17:49.555Z,25.05
2022-11-27T08:18:51.226Z,25.90
2022-11-27T08:19:52.903Z,21.92
2022-11-27T08:20:54.589Z,22.90
2022-11-27T08:21:57.520Z,23.17
2022-11-27T08:23:02.724Z,22.50
2022-11-27T08:24:05.245Z,21.90
2022-11-27T08:25:07.487Z,22.00
2022-11-27T08:26:10.918Z,24.98
2022-11-27T08:27:12.496Z,22.48
2022-11-27T08:28:14.049Z,20.20
2022-11-27T08:29:15.705Z,20.95
2022-11-27T08:30:17.809Z,19.17
2022-11-27T08:31:20.920Z,24.98
2022-11-27T08:32:25.590Z,28.00
2022-11-27T08:33:28.035Z,31.35
2022-11-27T08:34:29.684Z,29.15
2022-11-27T08:35:31.208Z,23.25
2022-11-27T08:36:33.167Z,23.92
2022-11-27T08:37:35.074Z,25.25
2022-11-27T08:38:36.670Z,23.50
2022-11-27T08:39:38.642Z,20.48
2022-11-27T08:40:40.348Z,20.08
2022-11-27T08:41:41.946Z,18.98
2022-11-27T08:42:43.540Z,19.50
2022-11-27T08:43:45.127Z,20.55
2022-11-27T08:44:46.765Z,17.80
2022-11-27T08:45:48.969Z,19.55
2022-11-27T08:46:50.648Z,18.52
2022-11-27T08:47:52.300Z,17.23
2022-11-27T08:48:53.935Z,17.65
2022-11-27T08:49:55.589Z,18.40
2022-11-27T08:50:57.165Z,20.63
2022-11-27T08:51:58.770Z,21.27
2022-11-27T08:53:00.381Z,20.13
2022-11-27T08:54:02.150Z,19.60
2022-11-27T08:55:04.838Z,19.85
2022-11-27T08:56:14.391Z,21.17
2022-11-27T08:57:16.729Z,20.30
2022-11-27T08:58:18.471Z,19.75
2022-11-27T08:59:20.151Z,22.10
2022-11-27T09:00:27.611Z,20.70
2022-11-27T09:01:32.661Z,19.33
2022-11-27T09:02:34.935Z,19.02
2022-11-27T09:03:36.991Z,17.95
2022-11-27T09:04:38.950Z,20.42
2022-11-27T09:05:44.792Z,21.88
2022-11-27T09:06:48.766Z,21.77
2022-11-27T09:07:51.389Z,22.10
2022-11-27T09:08:53.169Z,24.95
2022-11-27T09:09:54.706Z,23.65
2022-11-27T09:11:00.282Z,22.10
2022-11-27T09:12:01.855Z,24.10
2022-11-27T09:13:03.457Z,21.80
2022-11-27T09:14:06.168Z,23.25
2022-11-27T09:15:08.322Z,20.67
2022-11-27T09:16:13.254Z,22.70
2022-11-27T09:17:14.953Z,22.30
2022-11-27T09:18:16.523Z,24.70
2022-11-27T09:19:18.176Z,22.27
2022-11-27T09:20:20.191Z,20.83
2022-11-27T09:21:24.627Z,20.05
2022-11-27T09:22:26.194Z,22.70
2022-11-27T09:23:28.846Z,23.35
2022-11-27T09:24:30.865Z,21.40
2022-11-27T09:25:32.584Z,19.35
2022-11-27T09:26:34.218Z,19.25
2022-11-27T09:27:37.716Z,21.98
2022-11-27T09:28:40.607Z,19.45
2022-11-27T09:29:42.253Z,19.20
2022-11-27T09:30:44.148Z,19.17
2022-11-27T09:31:45.989Z,20.00
2022-11-27T09:32:47.590Z,19.55
2022-11-27T09:33:49.889Z,20.33
2022-11-27T09:34:52.236Z,21.75
2022-11-27T09:35:54.018Z,19.30
2022-11-27T09:36:55.600Z,19.50
2022-11-27T09:37:57.278Z,17.80
2022-11-27T09:38:59.611Z,18.80
2022-11-27T09:40:01.179Z,18.95
2022-11-27T09:41:11.702Z,20.20
2022-11-27T09:42:29.929Z,19.42
2022-11-27T09:43:36.666Z,18.85
2022-11-27T09:44:46.659Z,19.50
2022-11-27T09:45:55.819Z,17.98
2022-11-27T09:47:01.596Z,20.80
2022-11-27T09:48:07.355Z,19.77
2022-11-27T09:49:18.118Z,19.73
2022-11-27T09:50:25.017Z,20.13
2022-11-27T09:51:40.098Z,20.00
2022-11-27T09:52:46.291Z,20.35
2022-11-27T09:53:56.060Z,19.65
2022-11-27T09:55:03.098Z,19.67
2022-11-27T09:56:11.445Z,20.88
2022-11-27T09:57:20.808Z,19.08
2022-11-27T09:58:27.783Z,19.50
2022-11-27T09:59:49.123Z,20.33
2022-11-27T10:00:53.671Z,16.92
2022-11-27T10:01:55.597Z,17.00
2022-11-27T10:02:57.376Z,15.85
2022-11-27T10:04:01.236Z,16.65
2022-11-27T10:05:15.493Z,18.48
2022-11-27T10:06:39.251Z,18.08
2022-11-27T10:08:12.854Z,16.52
2022-11-27T10:09:22.813Z,18.67
2022-11-27T10:10:39.656Z,18.50
2022-11-27T10:12:15.347Z,17.25
2022-11-27T10:13:39.365Z,16.40
2022-11-27T10:14:56.928Z,16.67
2022-11-27T10:16:15.413Z,18.13
2022-11-27T10:17:17.112Z,17.42
2022-11-27T10:18:41.836Z,18.45
2022-11-27T10:20:01.450Z,17.67
2022-11-27T10:21:25.046Z,18.02
2022-11-27T10:22:54.870Z,17.77
2022-11-27T10:24:13.117Z,20.00
2022-11-27T10:25:28.743Z,22.85
2022-11-27T10:26:46.763Z,23.27
2022-11-27T10:28:00.776Z,20.05
2022-11-27T10:29:29.835Z,18.02
2022-11-27T10:30:37.400Z,22.88
2022-11-27T10:31:47.283Z,17.73
2022-11-27T10:32:55.683Z,19.90
2022-11-27T10:34:02.762Z,16.88
2022-11-27T10:35:12.939Z,17.60
2022-11-27T10:36:40.441Z,15.25
2022-11-27T10:37:48.099Z,16.63
2022-11-27T10:38:50.927Z,15.65
2022-11-27T10:40:08.427Z,17.75
2022-11-27T10:43:00.142Z,16.33
2022-11-27T10:44:18.299Z,15.20
2022-11-27T10:45:31.914Z,14.32
2022-11-27T10:46:39.354Z,16.00
2022-11-27T10:47:44.248Z,14.63
2022-11-27T10:48:46.777Z,14.88
2022-11-27T10:49:48.684Z,15.82
2022-11-27T10:50:50.920Z,16.38
2022-11-27T10:51:52.687Z,18.95
2022-11-27T10:53:01.703Z,17.90
2022-11-27T10:54:07.021Z,22.17
2022-11-27T10:55:21.870Z,21.10
2022-11-27T10:57:01.004Z,19.25
2022-11-27T10:58:35.847Z,13.18
2022-11-27T10:59:46.763Z,12.98
2022-11-27T11:00:48.539Z,13.30
2022-11-27T11:01:53.548Z,11.50
2022-11-27T11:03:04.098Z,12.23
2022-11-27T11:04:35.866Z,12.30
2022-11-27T11:06:12.164Z,12.65
2022-11-27T11:06:55.541Z,12.50
2022-11-27T11:07:58.702Z,25.67
2022-11-27T11:09:13.026Z,16.95
2022-11-27T11:10:44.828Z,13.13
2022-11-27T11:11:46.586Z,11.55
2022-11-27T11:12:48.302Z,12.10
2022-11-27T11:13:50.292Z,12.35
2022-11-27T11:14:53.640Z,11.68
2022-11-27T11:16:14.661Z,13.15
2022-11-27T11:17:17.993Z,12.32
2022-11-27T11:18:25.301Z,12.13
2022-11-27T11:19:30.023Z,10.95
2022-11-27T11:20:31.685Z,12.75
2022-11-27T11:21:35.041Z,14.02
2022-11-27T11:22:36.748Z,13.50
2022-11-27T11:23:40.959Z,16.70
2022-11-27T11:24:51.295Z,15.80
2022-11-27T11:25:57.086Z,19.63
2022-11-27T11:27:04.542Z,20.95
2022-11-27T11:28:06.217Z,21.55
2022-11-27T11:29:36.748Z,19.70
2022-11-27T11:30:39.621Z,15.05
2022-11-27T11:31:41.514Z,16.73
2022-11-27T11:32:44.998Z,14.73
2022-11-27T11:34:00.035Z,15.25
2022-11-27T11:35:09.822Z,15.93
2022-11-27T11:36:11.626Z,16.30
2022-11-27T11:37:34.503Z,17.20
2022-11-27T11:38:36.712Z,17.25
2022-11-27T11:39:44.712Z,16.40
2022-11-27T11:41:06.817Z,17.65
2022-11-27T11:42:11.125Z,15.45
2022-11-27T11:43:52.290Z,15.65
2022-11-27T11:45:17.329Z,14.90
2022-11-27T11:46:23.060Z,17.27
2022-11-27T11:47:25.337Z,16.70
2022-11-27T11:48:27.927Z,15.73
2022-11-27T11:49:33.278Z,15.88
2022-11-27T11:51:07.152Z,15.70
2022-11-27T11:52:23.827Z,15.20
2022-11-27T11:53:34.738Z,15.57
2022-11-27T11:54:52.899Z,15.10
2022-11-27T11:56:13.486Z,14.30
2022-11-27T11:57:51.982Z,12.73
2022-11-27T11:59:22.996Z,14.00
2022-11-27T12:00:48.728Z,12.35
2022-11-27T12:02:30.874Z,17.83
2022-11-27T12:03:58.499Z,19.08
2022-11-27T12:05:11.740Z,14.60
2022-11-27T12:06:25.630Z,14.32
2022-11-27T12:08:04.392Z,13.48
2022-11-27T12:09:15.346Z,13.23
2022-11-27T12:10:31.638Z,12.95
2022-11-27T12:11:47.103Z,11.85
2022-11-27T12:13:00.691Z,11.85
2022-11-27T12:14:07.744Z,12.00
2022-11-27T12:15:26.196Z,12.32
2022-11-27T12:16:52.612Z,13.00
2022-11-27T12:18:22.603Z,12.20
2022-11-27T12:19:33.180Z,12.65
2022-11-27T12:21:08.888Z,12.00
2022-11-27T12:22:13.783Z,17.38
2022-11-27T12:23:39.464Z,13.85
2022-11-27T12:25:17.655Z,12.68
2022-11-27T12:26:37.941Z,13.13
2022-11-27T12:28:16.254Z,11.75
2022-11-27T12:29:32.213Z,13.63
2022-11-27T12:30:52.112Z,13.27
2022-11-27T12:32:18.753Z,11.50
2022-11-27T12:33:38.443Z,11.45
2022-11-27T12:35:01.229Z,12.10
2022-11-27T12:36:16.190Z,12.38
2022-11-27T12:37:30.704Z,13.35
2022-11-27T12:38:53.760Z,12.30
2022-11-27T12:40:15.671Z,12.18
2022-11-27T12:41:29.589Z,13.10
2022-11-27T12:42:34.585Z,12.57
2022-11-27T12:43:41.558Z,11.90
2022-11-27T12:44:50.705Z,12.70
2022-11-27T12:46:43.315Z,13.82
2022-11-27T12:47:59.202Z,13.27
2022-11-27T12:49:09.904Z,12.25
2022-11-27T12:50:25.873Z,11.73
2022-11-27T12:51:31.789Z,12.70
2022-11-27T12:52:41.812Z,12.52
2022-11-27T12:53:50.313Z,13.15
2022-11-27T12:55:25.347Z,13.75
2022-11-27T12:56:30.050Z,13.00
2022-11-27T12:57:49.770Z,14.23
2022-11-27T12:58:57.449Z,14.20
2022-11-27T13:00:03.876Z,13.63
2022-11-27T13:01:15.789Z,13.05
2022-11-27T13:02:28.733Z,14.23
2022-11-27T13:03:45.692Z,13.43
2022-11-27T13:04:52.207Z,13.80
2022-11-27T13:06:00.188Z,13.77
2022-11-27T13:07:24.969Z,16.38
2022-11-27T13:08:35.002Z,14.90
2022-11-27T13:09:42.660Z,15.05
2022-11-27T13:10:55.344Z,15.15
2022-11-27T13:11:57.250Z,15.75
2022-11-27T13:13:06.950Z,15.52
2022-11-27T13:14:18.709Z,14.35
2022-11-27T13:15:35.965Z,14.68
2022-11-27T13:16:45.179Z,15.85
2022-11-27T13:17:53.998Z,15.57
2022-11-27T13:19:01.770Z,15.75
2022-11-27T13:20:04.982Z,16.00
2022-11-27T13:21:23.641Z,16.65
2022-11-27T13:22:35.131Z,17.20
2022-11-27T13:23:38.587Z,16.25
2022-11-27T13:24:41.233Z,16.30
2022-11-27T13:25:48.983Z,16.65
2022-11-27T13:27:07.459Z,17.40
2022-11-27T13:28:21.892Z,16.83
2022-11-27T13:29:38.292Z,16.58
2022-11-27T13:30:43.248Z,16.70
2022-11-27T13:31:56.348Z,16.77
2022-11-27T13:33:06.729Z,15.95
2022-11-27T13:34:20.158Z,16.00
2022-11-27T13:35:35.245Z,16.15
2022-11-27T13:36:45.535Z,17.00
2022-11-27T13:37:57.267Z,15.25
2022-11-27T13:39:01.344Z,15.30
2022-11-27T13:40:19.353Z,14.48
2022-11-27T13:41:24.850Z,14.98
2022-11-27T13:42:29.122Z,15.15
2022-11-27T13:43:45.448Z,14.10
2022-11-27T13:44:57.384Z,15.82
2022-11-27T13:46:10.054Z,14.63
2022-11-27T13:47:19.713Z,17.20
2022-11-27T13:48:36.063Z,17.60
2022-11-27T13:49:40.690Z,16.98
2022-11-27T13:50:49.423Z,14.95
2022-11-27T13:51:52.705Z,15.20
2022-11-27T13:53:04.312Z,16.23
2022-11-27T13:54:17.527Z,14.57
2022-11-27T13:55:29.055Z,15.07
2022-11-27T13:56:33.037Z,13.07
2022-11-27T13:57:36.631Z,14.93
2022-11-27T13:58:42.008Z,14.70
2022-11-27T14:00:03.529Z,14.20
2022-11-27T14:01:15.985Z,13.55
2022-11-27T14:02:18.251Z,12.93
2022-11-27T14:03:24.661Z,13.43
2022-11-27T14:04:30.972Z,14.00
2022-11-27T14:05:38.984Z,12.95
2022-11-27T14:06:43.699Z,13.00
2022-11-27T14:07:53.511Z,12.38
2022-11-27T14:09:02.100Z,14.20
2022-11-27T14:10:15.789Z,14.30
2022-11-27T14:11:35.782Z,14.68
2022-11-27T14:12:40.415Z,13.52
2022-11-27T14:13:52.934Z,15.55
2022-11-27T14:15:17.566Z,15.27
2022-11-27T14:16:28.076Z,14.50
2022-11-27T14:17:46.977Z,16.25
2022-11-27T14:18:52.457Z,15.68
2022-11-27T14:20:06.707Z,14.82
2022-11-27T14:21:09.316Z,14.88
2022-11-27T14:23:10.479Z,15.40